sensor_id;sensor_type;location;lat;lon;timestamp;pressure;altitude;pressure_sealevel;temperature;humidity
21234;BME280;10774;42.178;26.578;2023-01-26T00:00:48;100924.25;;;3.60;100.00
21234;BME280;10774;42.178;26.578;2023-01-26T00:03:13;100923.28;;;3.62;100.00
21234;BME280;10774;42.178;26.578;2023-01-26T00:05:39;100918.16;;;3.55;100.00
21234;BME280;10774;42.178;26.578;2023-01-26T00:08:05;100908.53;;;3.49;100.00
21234;BME280;10774;42.178;26.578;2023-01-26T00:10:30;100918.31;;;3.46;100.00
21234;BME280;10774;42.178;26.578;2023-01-26T00:12:56;100911.56;;;3.29;100.00
21234;BME280;10774;42.178;26.578;2023-01-26T00:15:21;100921.09;;;3.39;100.00
21234;BME280;10774;42.178;26.578;2023-01-26T00:17:47;100908.06;;;3.27;100.00
21234;BME280;10774;42.178;26.578;2023-01-26T00:20:15;100904.38;;;3.34;100.00
21234;BME280;10774;42.178;26.578;2023-01-26T00:22:41;100919.53;;;3.29;100.00
21234;BME280;10774;42.178;26.578;2023-01-26T00:25:06;100909.81;;;3.28;100.00
21234;BME280;10774;42.178;26.578;2023-01-26T00:27:32;100907.09;;;3.31;100.00
21234;BME280;10774;42.178;26.578;2023-01-26T00:29:57;100927.97;;;3.50;100.00
21234;BME280;10774;42.178;26.578;2023-01-26T00:32:23;100934.13;;;3.52;100.00
21234;BME280;10774;42.178;26.578;2023-01-26T00:34:48;100931.59;;;3.46;100.00
21234;BME280;10774;42.178;26.578;2023-01-26T00:37:14;100909.44;;;3.47;100.00
21234;BME280;10774;42.178;26.578;2023-01-26T00:39:39;100911.16;;;3.51;100.00
21234;BME280;10774;42.178;26.578;2023-01-26T00:42:04;100909.09;;;3.65;100.00
21234;BME280;10774;42.178;26.578;2023-01-26T00:44:39;100905.44;;;3.69;100.00
21234;BME280;10774;42.178;26.578;2023-01-26T00:47:05;100903.22;;;3.48;100.00
21234;BME280;10774;42.178;26.578;2023-01-26T00:49:31;100905.53;;;3.66;100.00
21234;BME280;10774;42.178;26.578;2023-01-26T00:51:57;100902.28;;;3.52;100.00
21234;BME280;10774;42.178;26.578;2023-01-26T00:54:22;100907.03;;;3.34;100.00
21234;BME280;10774;42.178;26.578;2023-01-26T00:56:48;100899.56;;;3.55;100.00
21234;BME280;10774;42.178;26.578;2023-01-26T00:59:13;100898.44;;;3.66;100.00
21234;BME280;10774;42.178;26.578;2023-01-26T01:01:39;100894.00;;;3.67;100.00
21234;BME280;10774;42.178;26.578;2023-01-26T01:04:04;100877.38;;;3.57;100.00
21234;BME280;10774;42.178;26.578;2023-01-26T01:06:30;100884.44;;;3.58;100.00
21234;BME280;10774;42.178;26.578;2023-01-26T01:08:55;100885.97;;;2.77;100.00
21234;BME280;10774;42.178;26.578;2023-01-26T01:11:20;100881.00;;;2.56;100.00
21234;BME280;10774;42.178;26.578;2023-01-26T01:13:46;100883.84;;;2.98;100.00
21234;BME280;10774;42.178;26.578;2023-01-26T01:16:13;100886.16;;;3.16;100.00
21234;BME280;10774;42.178;26.578;2023-01-26T01:18:39;100881.53;;;3.26;100.00
21234;BME280;10774;42.178;26.578;2023-01-26T01:21:08;100877.91;;;3.31;100.00
21234;BME280;10774;42.178;26.578;2023-01-26T01:23:34;100866.25;;;3.40;100.00
21234;BME280;10774;42.178;26.578;2023-01-26T01:26:00;100874.28;;;3.35;100.00
21234;BME280;10774;42.178;26.578;2023-01-26T01:28:26;100859.94;;;3.46;100.00
21234;BME280;10774;42.178;26.578;2023-01-26T01:30:51;100857.22;;;3.49;100.00
21234;BME280;10774;42.178;26.578;2023-01-26T01:33:17;100839.75;;;3.37;100.00
21234;BME280;10774;42.178;26.578;2023-01-26T01:35:42;100832.53;;;3.45;100.00
21234;BME280;10774;42.178;26.578;2023-01-26T01:38:08;100849.09;;;3.56;100.00
21234;BME280;10774;42.178;26.578;2023-01-26T01:40:33;100852.50;;;3.63;100.00
21234;BME280;10774;42.178;26.578;2023-01-26T01:42:59;100831.78;;;3.37;100.00
21234;BME280;10774;42.178;26.578;2023-01-26T01:47:50;100839.22;;;3.63;100.00
21234;BME280;10774;42.178;26.578;2023-01-26T01:50:17;100834.91;;;3.59;100.00
21234;BME280;10774;42.178;26.578;2023-01-26T01:52:44;100834.13;;;3.52;100.00
21234;BME280;10774;42.178;26.578;2023-01-26T01:55:11;100808.41;;;3.56;100.00
21234;BME280;10774;42.178;26.578;2023-01-26T01:57:43;100818.97;;;3.59;100.00
21234;BME280;10774;42.178;26.578;2023-01-26T02:00:17;100823.41;;;3.57;100.00
21234;BME280;10774;42.178;26.578;2023-01-26T02:02:44;100812.84;;;3.55;100.00
21234;BME280;10774;42.178;26.578;2023-01-26T02:05:32;100794.34;;;3.51;100.00
21234;BME280;10774;42.178;26.578;2023-01-26T02:08:00;100794.13;;;2.73;100.00
21234;BME280;10774;42.178;26.578;2023-01-26T02:10:27;100788.81;;;2.75;100.00
21234;BME280;10774;42.178;26.578;2023-01-26T02:12:54;100781.16;;;2.04;100.00
21234;BME280;10774;42.178;26.578;2023-01-26T02:15:30;100796.34;;;2.47;100.00
21234;BME280;10774;42.178;26.578;2023-01-26T02:17:57;100799.53;;;2.67;100.00
21234;BME280;10774;42.178;26.578;2023-01-26T02:20:34;100795.13;;;2.15;100.00
21234;BME280;10774;42.178;26.578;2023-01-26T02:28:25;100800.66;;;2.00;100.00
21234;BME280;10774;42.178;26.578;2023-01-26T02:30:52;100791.88;;;1.98;100.00
21234;BME280;10774;42.178;26.578;2023-01-26T02:33:20;100784.91;;;1.91;100.00
21234;BME280;10774;42.178;26.578;2023-01-26T02:35:45;100798.22;;;1.84;100.00
21234;BME280;10774;42.178;26.578;2023-01-26T02:38:11;100790.59;;;1.63;100.00
21234;BME280;10774;42.178;26.578;2023-01-26T02:40:59;100772.41;;;1.40;100.00
21234;BME280;10774;42.178;26.578;2023-01-26T02:43:26;100761.06;;;1.30;100.00
21234;BME280;10774;42.178;26.578;2023-01-26T02:45:52;100781.22;;;1.39;100.00
21234;BME280;10774;42.178;26.578;2023-01-26T02:48:18;100749.66;;;1.25;100.00
21234;BME280;10774;42.178;26.578;2023-01-26T02:51:03;100781.16;;;1.45;100.00
21234;BME280;10774;42.178;26.578;2023-01-26T02:53:29;100761.63;;;1.52;100.00
21234;BME280;10774;42.178;26.578;2023-01-26T02:55:54;100753.03;;;1.38;100.00
21234;BME280;10774;42.178;26.578;2023-01-26T02:58:19;100781.47;;;1.86;100.00
21234;BME280;10774;42.178;26.578;2023-01-26T03:00:45;100781.84;;;1.58;100.00
21234;BME280;10774;42.178;26.578;2023-01-26T03:03:16;100767.84;;;1.53;100.00
21234;BME280;10774;42.178;26.578;2023-01-26T03:05:44;100783.75;;;1.48;100.00
21234;BME280;10774;42.178;26.578;2023-01-26T03:08:09;100780.44;;;1.33;100.00
21234;BME280;10774;42.178;26.578;2023-01-26T03:10:35;100761.31;;;1.12;100.00
21234;BME280;10774;42.178;26.578;2023-01-26T03:13:01;100743.34;;;1.36;100.00
21234;BME280;10774;42.178;26.578;2023-01-26T03:15:27;100764.69;;;1.23;100.00
21234;BME280;10774;42.178;26.578;2023-01-26T03:18:10;100720.72;;;1.15;100.00
21234;BME280;10774;42.178;26.578;2023-01-26T03:20:58;100760.28;;;1.86;100.00
21234;BME280;10774;42.178;26.578;2023-01-26T03:23:42;100752.72;;;1.60;100.00
21234;BME280;10774;42.178;26.578;2023-01-26T03:26:26;100746.72;;;1.48;100.00
21234;BME280;10774;42.178;26.578;2023-01-26T03:29:10;100737.81;;;1.54;100.00
21234;BME280;10774;42.178;26.578;2023-01-26T03:31:35;100727.53;;;1.31;100.00
21234;BME280;10774;42.178;26.578;2023-01-26T03:34:01;100740.72;;;1.37;100.00
21234;BME280;10774;42.178;26.578;2023-01-26T03:36:26;100737.25;;;1.32;100.00
21234;BME280;10774;42.178;26.578;2023-01-26T03:38:52;100713.78;;;1.06;100.00
21234;BME280;10774;42.178;26.578;2023-01-26T03:41:17;100718.06;;;1.16;100.00
21234;BME280;10774;42.178;26.578;2023-01-26T03:44:01;100731.97;;;1.30;100.00
21234;BME280;10774;42.178;26.578;2023-01-26T03:46:45;100720.72;;;1.16;100.00
21234;BME280;10774;42.178;26.578;2023-01-26T03:49:29;100692.59;;;1.09;100.00
21234;BME280;10774;42.178;26.578;2023-01-26T03:52:13;100714.50;;;1.19;100.00
21234;BME280;10774;42.178;26.578;2023-01-26T03:54:56;100713.81;;;1.03;100.00
21234;BME280;10774;42.178;26.578;2023-01-26T03:57:40;100709.84;;;1.38;100.00
21234;BME280;10774;42.178;26.578;2023-01-26T04:00:06;100714.75;;;1.62;100.00
21234;BME280;10774;42.178;26.578;2023-01-26T04:02:32;100700.81;;;1.51;100.00
21234;BME280;10774;42.178;26.578;2023-01-26T04:05:16;100722.00;;;2.05;100.00
21234;BME280;10774;42.178;26.578;2023-01-26T04:08:04;100701.69;;;2.07;100.00
21234;BME280;10774;42.178;26.578;2023-01-26T04:10:53;100716.75;;;2.03;100.00
21234;BME280;10774;42.178;26.578;2023-01-26T04:13:21;100720.94;;;1.61;100.00
21234;BME280;10774;42.178;26.578;2023-01-26T04:16:06;100707.84;;;1.52;100.00
21234;BME280;10774;42.178;26.578;2023-01-26T04:18:50;100728.41;;;1.31;100.00
21234;BME280;10774;42.178;26.578;2023-01-26T04:21:34;100714.59;;;1.74;100.00
21234;BME280;10774;42.178;26.578;2023-01-26T04:24:02;100728.19;;;2.07;100.00
21234;BME280;10774;42.178;26.578;2023-01-26T04:26:35;100705.06;;;2.15;100.00
21234;BME280;10774;42.178;26.578;2023-01-26T04:29:12;100718.56;;;2.00;100.00
21234;BME280;10774;42.178;26.578;2023-01-26T04:31:39;100708.59;;;2.16;100.00
21234;BME280;10774;42.178;26.578;2023-01-26T04:34:06;100701.16;;;2.36;100.00
21234;BME280;10774;42.178;26.578;2023-01-26T04:36:32;100698.81;;;2.67;100.00
21234;BME280;10774;42.178;26.578;2023-01-26T04:38:58;100709.34;;;2.24;100.00
21234;BME280;10774;42.178;26.578;2023-01-26T04:41:24;100685.72;;;2.12;100.00
21234;BME280;10774;42.178;26.578;2023-01-26T04:43:49;100703.31;;;2.14;100.00
21234;BME280;10774;42.178;26.578;2023-01-26T04:46:15;100716.81;;;1.99;100.00
21234;BME280;10774;42.178;26.578;2023-01-26T04:48:40;100712.41;;;2.01;100.00
21234;BME280;10774;42.178;26.578;2023-01-26T04:51:10;100697.09;;;1.63;100.00
21234;BME280;10774;42.178;26.578;2023-01-26T04:53:36;100691.88;;;1.60;100.00
21234;BME280;10774;42.178;26.578;2023-01-26T04:56:02;100704.41;;;1.47;100.00
21234;BME280;10774;42.178;26.578;2023-01-26T04:58:27;100699.91;;;1.53;100.00
21234;BME280;10774;42.178;26.578;2023-01-26T05:00:54;100687.91;;;1.87;100.00
21234;BME280;10774;42.178;26.578;2023-01-26T05:03:21;100684.91;;;2.08;100.00
21234;BME280;10774;42.178;26.578;2023-01-26T05:05:52;100690.53;;;2.39;100.00
21234;BME280;10774;42.178;26.578;2023-01-26T05:08:19;100703.88;;;2.33;100.00
21234;BME280;10774;42.178;26.578;2023-01-26T05:10:45;100700.94;;;2.50;100.00
21234;BME280;10774;42.178;26.578;2023-01-26T05:13:11;100695.34;;;2.65;100.00
21234;BME280;10774;42.178;26.578;2023-01-26T05:15:36;100673.81;;;2.80;100.00
21234;BME280;10774;42.178;26.578;2023-01-26T05:18:03;100668.44;;;2.83;100.00
21234;BME280;10774;42.178;26.578;2023-01-26T05:20:28;100659.53;;;2.87;100.00
21234;BME280;10774;42.178;26.578;2023-01-26T05:22:54;100678.84;;;2.93;100.00
21234;BME280;10774;42.178;26.578;2023-01-26T05:25:19;100674.09;;;3.08;100.00
21234;BME280;10774;42.178;26.578;2023-01-26T05:27:45;100672.41;;;3.04;100.00
21234;BME280;10774;42.178;26.578;2023-01-26T05:30:11;100669.63;;;3.12;100.00
21234;BME280;10774;42.178;26.578;2023-01-26T05:32:37;100652.16;;;3.02;100.00
21234;BME280;10774;42.178;26.578;2023-01-26T05:35:04;100657.13;;;3.17;100.00
21234;BME280;10774;42.178;26.578;2023-01-26T05:37:30;100665.31;;;3.06;100.00
21234;BME280;10774;42.178;26.578;2023-01-26T05:39:55;100662.34;;;3.20;100.00
21234;BME280;10774;42.178;26.578;2023-01-26T05:42:22;100655.09;;;3.27;100.00
21234;BME280;10774;42.178;26.578;2023-01-26T05:44:48;100669.00;;;3.39;100.00
21234;BME280;10774;42.178;26.578;2023-01-26T05:47:13;100639.19;;;3.28;100.00
21234;BME280;10774;42.178;26.578;2023-01-26T05:49:39;100652.06;;;3.45;100.00
21234;BME280;10774;42.178;26.578;2023-01-26T05:52:12;100667.25;;;3.38;100.00
21234;BME280;10774;42.178;26.578;2023-01-26T05:54:38;100665.22;;;3.50;100.00
21234;BME280;10774;42.178;26.578;2023-01-26T05:57:04;100630.25;;;3.32;100.00
21234;BME280;10774;42.178;26.578;2023-01-26T05:59:29;100629.00;;;3.47;100.00
21234;BME280;10774;42.178;26.578;2023-01-26T06:01:55;100645.34;;;3.66;100.00
21234;BME280;10774;42.178;26.578;2023-01-26T06:04:21;100642.50;;;3.74;100.00
21234;BME280;10774;42.178;26.578;2023-01-26T06:06:46;100628.56;;;3.65;100.00
21234;BME280;10774;42.178;26.578;2023-01-26T06:09:12;100644.34;;;3.72;100.00
21234;BME280;10774;42.178;26.578;2023-01-26T06:11:37;100635.59;;;3.66;100.00
21234;BME280;10774;42.178;26.578;2023-01-26T06:14:03;100633.91;;;3.64;100.00
21234;BME280;10774;42.178;26.578;2023-01-26T06:16:28;100651.22;;;3.79;100.00
21234;BME280;10774;42.178;26.578;2023-01-26T06:18:54;100621.00;;;3.49;100.00
21234;BME280;10774;42.178;26.578;2023-01-26T06:21:19;100636.41;;;3.70;100.00
21234;BME280;10774;42.178;26.578;2023-01-26T06:23:45;100636.97;;;3.83;100.00
21234;BME280;10774;42.178;26.578;2023-01-26T06:26:10;100652.56;;;3.95;100.00
21234;BME280;10774;42.178;26.578;2023-01-26T06:28:36;100654.13;;;4.04;100.00
21234;BME280;10774;42.178;26.578;2023-01-26T06:31:03;100649.00;;;3.98;100.00
21234;BME280;10774;42.178;26.578;2023-01-26T06:33:31;100642.69;;;4.02;100.00
21234;BME280;10774;42.178;26.578;2023-01-26T06:36:07;100648.91;;;4.01;100.00
21234;BME280;10774;42.178;26.578;2023-01-26T06:38:34;100662.06;;;4.05;100.00
21234;BME280;10774;42.178;26.578;2023-01-26T06:41:00;100648.13;;;3.97;100.00
21234;BME280;10774;42.178;26.578;2023-01-26T06:43:33;100640.97;;;3.99;100.00
21234;BME280;10774;42.178;26.578;2023-01-26T06:45:59;100632.84;;;4.05;100.00
21234;BME280;10774;42.178;26.578;2023-01-26T06:48:26;100643.13;;;4.19;100.00
21234;BME280;10774;42.178;26.578;2023-01-26T06:50:55;100644.81;;;4.22;100.00
21234;BME280;10774;42.178;26.578;2023-01-26T06:53:25;100652.03;;;4.16;100.00
21234;BME280;10774;42.178;26.578;2023-01-26T06:55:53;100642.75;;;3.63;100.00
21234;BME280;10774;42.178;26.578;2023-01-26T06:58:18;100643.03;;;3.52;100.00
21234;BME280;10774;42.178;26.578;2023-01-26T07:00:44;100647.63;;;3.46;100.00
21234;BME280;10774;42.178;26.578;2023-01-26T07:03:09;100646.16;;;3.32;100.00
21234;BME280;10774;42.178;26.578;2023-01-26T07:05:35;100648.84;;;3.31;100.00
21234;BME280;10774;42.178;26.578;2023-01-26T07:08:01;100650.44;;;3.75;100.00
21234;BME280;10774;42.178;26.578;2023-01-26T07:10:29;100641.78;;;4.03;100.00
21234;BME280;10774;42.178;26.578;2023-01-26T07:12:55;100620.75;;;3.58;100.00
21234;BME280;10774;42.178;26.578;2023-01-26T07:15:20;100625.72;;;3.37;100.00
21234;BME280;10774;42.178;26.578;2023-01-26T07:17:45;100617.44;;;3.50;100.00
21234;BME280;10774;42.178;26.578;2023-01-26T07:20:11;100626.88;;;3.24;100.00
21234;BME280;10774;42.178;26.578;2023-01-26T07:22:36;100616.97;;;3.68;100.00
21234;BME280;10774;42.178;26.578;2023-01-26T07:25:02;100595.13;;;3.92;100.00
21234;BME280;10774;42.178;26.578;2023-01-26T07:27:28;100589.28;;;4.11;100.00
21234;BME280;10774;42.178;26.578;2023-01-26T07:29:53;100614.88;;;4.15;100.00
21234;BME280;10774;42.178;26.578;2023-01-26T07:32:18;100590.66;;;4.26;100.00
21234;BME280;10774;42.178;26.578;2023-01-26T07:34:44;100609.38;;;3.88;100.00
21234;BME280;10774;42.178;26.578;2023-01-26T07:37:09;100606.38;;;4.02;100.00
21234;BME280;10774;42.178;26.578;2023-01-26T07:39:35;100609.94;;;3.67;100.00
21234;BME280;10774;42.178;26.578;2023-01-26T07:42:00;100599.63;;;3.55;100.00
21234;BME280;10774;42.178;26.578;2023-01-26T07:44:25;100573.84;;;2.85;100.00
21234;BME280;10774;42.178;26.578;2023-01-26T07:46:51;100558.91;;;2.81;100.00
21234;BME280;10774;42.178;26.578;2023-01-26T07:49:18;100595.22;;;3.54;100.00
21234;BME280;10774;42.178;26.578;2023-01-26T07:51:43;100579.75;;;3.71;100.00
21234;BME280;10774;42.178;26.578;2023-01-26T07:54:10;100560.53;;;3.94;100.00
21234;BME280;10774;42.178;26.578;2023-01-26T07:56:37;100567.22;;;3.76;100.00
21234;BME280;10774;42.178;26.578;2023-01-26T07:59:02;100554.34;;;3.25;100.00
21234;BME280;10774;42.178;26.578;2023-01-26T08:01:28;100562.72;;;3.78;100.00
21234;BME280;10774;42.178;26.578;2023-01-26T08:03:53;100561.75;;;4.15;100.00
21234;BME280;10774;42.178;26.578;2023-01-26T08:06:19;100525.28;;;4.20;100.00
21234;BME280;10774;42.178;26.578;2023-01-26T08:08:46;100529.47;;;3.98;100.00
21234;BME280;10774;42.178;26.578;2023-01-26T08:11:16;100510.13;;;3.92;100.00
21234;BME280;10774;42.178;26.578;2023-01-26T08:13:42;100493.81;;;4.06;100.00
21234;BME280;10774;42.178;26.578;2023-01-26T08:16:08;100514.75;;;4.17;100.00
21234;BME280;10774;42.178;26.578;2023-01-26T08:18:37;100493.34;;;3.58;100.00
21234;BME280;10774;42.178;26.578;2023-01-26T08:21:03;100507.72;;;3.51;100.00
21234;BME280;10774;42.178;26.578;2023-01-26T08:23:28;100505.88;;;3.53;100.00
21234;BME280;10774;42.178;26.578;2023-01-26T08:25:54;100530.53;;;4.23;100.00
21234;BME280;10774;42.178;26.578;2023-01-26T08:28:24;100531.72;;;4.42;100.00
21234;BME280;10774;42.178;26.578;2023-01-26T08:30:49;100536.91;;;4.47;100.00
21234;BME280;10774;42.178;26.578;2023-01-26T08:33:15;100559.34;;;4.37;100.00
21234;BME280;10774;42.178;26.578;2023-01-26T08:35:40;100558.03;;;4.52;100.00
21234;BME280;10774;42.178;26.578;2023-01-26T08:38:06;100573.47;;;4.98;100.00
21234;BME280;10774;42.178;26.578;2023-01-26T08:40:31;100570.19;;;5.18;100.00
21234;BME280;10774;42.178;26.578;2023-01-26T08:42:59;100572.13;;;5.13;100.00
21234;BME280;10774;42.178;26.578;2023-01-26T08:45:24;100549.28;;;5.34;100.00
21234;BME280;10774;42.178;26.578;2023-01-26T08:47:50;100549.88;;;4.58;100.00
21234;BME280;10774;42.178;26.578;2023-01-26T08:50:16;100555.94;;;4.63;100.00
21234;BME280;10774;42.178;26.578;2023-01-26T08:52:41;100539.75;;;4.41;100.00
21234;BME280;10774;42.178;26.578;2023-01-26T08:55:07;100536.16;;;4.11;100.00
21234;BME280;10774;42.178;26.578;2023-01-26T08:57:32;100518.59;;;4.07;100.00
21234;BME280;10774;42.178;26.578;2023-01-26T08:59:57;100545.00;;;4.42;100.00
21234;BME280;10774;42.178;26.578;2023-01-26T09:02:23;100536.56;;;4.58;100.00
21234;BME280;10774;42.178;26.578;2023-01-26T09:04:48;100536.94;;;4.45;100.00
21234;BME280;10774;42.178;26.578;2023-01-26T09:07:14;100549.78;;;4.90;100.00
21234;BME280;10774;42.178;26.578;2023-01-26T09:09:39;100517.75;;;4.93;100.00
21234;BME280;10774;42.178;26.578;2023-01-26T09:12:05;100528.91;;;5.06;100.00
21234;BME280;10774;42.178;26.578;2023-01-26T09:14:30;100502.19;;;5.36;100.00
21234;BME280;10774;42.178;26.578;2023-01-26T09:16:55;100511.25;;;5.30;100.00
21234;BME280;10774;42.178;26.578;2023-01-26T09:19:21;100499.44;;;5.12;100.00
21234;BME280;10774;42.178;26.578;2023-01-26T09:21:51;100489.13;;;4.73;100.00
21234;BME280;10774;42.178;26.578;2023-01-26T09:24:16;100483.03;;;5.24;100.00
21234;BME280;10774;42.178;26.578;2023-01-26T09:26:42;100472.84;;;5.37;100.00
21234;BME280;10774;42.178;26.578;2023-01-26T09:29:07;100462.84;;;5.69;100.00
21234;BME280;10774;42.178;26.578;2023-01-26T09:31:32;100481.63;;;5.91;100.00
21234;BME280;10774;42.178;26.578;2023-01-26T09:33:58;100465.63;;;6.16;100.00
21234;BME280;10774;42.178;26.578;2023-01-26T09:36:23;100470.91;;;6.41;100.00
21234;BME280;10774;42.178;26.578;2023-01-26T09:38:49;100467.56;;;6.58;100.00
21234;BME280;10774;42.178;26.578;2023-01-26T09:41:36;100460.34;;;6.83;99.83
21234;BME280;10774;42.178;26.578;2023-01-26T09:44:15;100447.75;;;6.65;99.46
21234;BME280;10774;42.178;26.578;2023-01-26T09:47:12;100450.97;;;6.73;100.00
21234;BME280;10774;42.178;26.578;2023-01-26T09:49:50;100430.88;;;6.86;99.89
21234;BME280;10774;42.178;26.578;2023-01-26T09:52:25;100439.34;;;7.18;98.16
21234;BME280;10774;42.178;26.578;2023-01-26T09:54:57;100412.19;;;7.06;98.04
21234;BME280;10774;42.178;26.578;2023-01-26T10:00:43;100415.31;;;7.18;98.53
21234;BME280;10774;42.178;26.578;2023-01-26T10:06:12;100406.34;;;6.98;99.23
21234;BME280;10774;42.178;26.578;2023-01-26T10:08:41;100395.50;;;6.81;100.00
21234;BME280;10774;42.178;26.578;2023-01-26T10:11:17;100386.31;;;6.88;100.00
21234;BME280;10774;42.178;26.578;2023-01-26T10:13:49;100369.09;;;6.95;100.00
21234;BME280;10774;42.178;26.578;2023-01-26T10:16:15;100357.09;;;7.05;100.00
21234;BME280;10774;42.178;26.578;2023-01-26T10:18:49;100353.84;;;7.19;100.00
21234;BME280;10774;42.178;26.578;2023-01-26T10:21:19;100326.53;;;6.92;100.00
21234;BME280;10774;42.178;26.578;2023-01-26T10:23:47;100328.81;;;7.01;100.00
21234;BME280;10774;42.178;26.578;2023-01-26T10:26:19;100334.19;;;6.79;100.00
21234;BME280;10774;42.178;26.578;2023-01-26T10:28:47;100330.84;;;6.74;100.00
21234;BME280;10774;42.178;26.578;2023-01-26T10:31:36;100327.97;;;6.79;100.00
21234;BME280;10774;42.178;26.578;2023-01-26T10:37:27;100287.03;;;6.80;100.00
21234;BME280;10774;42.178;26.578;2023-01-26T10:39:59;100264.47;;;6.67;100.00
21234;BME280;10774;42.178;26.578;2023-01-26T10:42:31;100243.25;;;6.64;100.00
21234;BME280;10774;42.178;26.578;2023-01-26T10:45:03;100233.16;;;6.72;100.00
21234;BME280;10774;42.178;26.578;2023-01-26T10:47:29;100203.41;;;6.81;100.00
21234;BME280;10774;42.178;26.578;2023-01-26T10:50:24;100201.91;;;6.94;100.00
21234;BME280;10774;42.178;26.578;2023-01-26T10:52:57;100187.22;;;7.04;100.00
21234;BME280;10774;42.178;26.578;2023-01-26T10:55:23;100181.53;;;7.12;100.00
21234;BME280;10774;42.178;26.578;2023-01-26T10:57:49;100172.88;;;7.26;100.00
21234;BME280;10774;42.178;26.578;2023-01-26T11:02:49;100181.81;;;7.63;100.00
21234;BME280;10774;42.178;26.578;2023-01-26T11:05:26;100188.72;;;7.85;100.00
21234;BME280;10774;42.178;26.578;2023-01-26T11:07:53;100184.91;;;8.08;100.00
21234;BME280;10774;42.178;26.578;2023-01-26T11:10:34;100193.13;;;8.23;99.61
21234;BME280;10774;42.178;26.578;2023-01-26T11:13:07;100202.03;;;8.58;98.34
21234;BME280;10774;42.178;26.578;2023-01-26T11:15:37;100183.78;;;8.66;97.40
21234;BME280;10774;42.178;26.578;2023-01-26T11:20:52;100196.38;;;8.47;96.76
21234;BME280;10774;42.178;26.578;2023-01-26T11:23:23;100203.06;;;8.38;97.92
21234;BME280;10774;42.178;26.578;2023-01-26T11:31:08;100202.75;;;8.44;97.30
21234;BME280;10774;42.178;26.578;2023-01-26T11:55:28;100147.38;;;7.93;100.00
21234;BME280;10774;42.178;26.578;2023-01-26T12:01:05;100125.28;;;8.06;100.00
21234;BME280;10774;42.178;26.578;2023-01-26T12:03:44;100121.06;;;8.02;100.00
21234;BME280;10774;42.178;26.578;2023-01-26T12:06:19;100105.00;;;7.85;100.00
21234;BME280;10774;42.178;26.578;2023-01-26T12:11:47;100103.91;;;7.89;100.00
21234;BME280;10774;42.178;26.578;2023-01-26T12:16:56;100084.09;;;7.93;100.00
21234;BME280;10774;42.178;26.578;2023-01-26T12:19:47;100080.88;;;8.04;100.00
21234;BME280;10774;42.178;26.578;2023-01-26T12:22:28;100095.19;;;8.03;100.00
21234;BME280;10774;42.178;26.578;2023-01-26T12:25:01;100077.00;;;7.75;100.00
21234;BME280;10774;42.178;26.578;2023-01-26T12:27:42;100077.81;;;7.77;100.00
21234;BME280;10774;42.178;26.578;2023-01-26T12:30:25;100089.13;;;7.82;100.00
21234;BME280;10774;42.178;26.578;2023-01-26T12:32:54;100083.28;;;7.56;100.00
21234;BME280;10774;42.178;26.578;2023-01-26T12:35:31;100085.50;;;7.66;100.00
21234;BME280;10774;42.178;26.578;2023-01-26T12:38:06;100075.13;;;7.59;100.00
21234;BME280;10774;42.178;26.578;2023-01-26T12:40:47;100083.69;;;7.49;100.00
21234;BME280;10774;42.178;26.578;2023-01-26T12:46:10;100083.69;;;7.66;100.00
21234;BME280;10774;42.178;26.578;2023-01-26T12:49:10;100093.19;;;7.54;100.00
21234;BME280;10774;42.178;26.578;2023-01-26T12:51:35;100095.56;;;7.60;100.00
21234;BME280;10774;42.178;26.578;2023-01-26T12:54:33;100088.72;;;7.55;100.00
21234;BME280;10774;42.178;26.578;2023-01-26T12:57:04;100104.56;;;7.58;100.00
21234;BME280;10774;42.178;26.578;2023-01-26T12:59:35;100090.41;;;7.39;100.00
21234;BME280;10774;42.178;26.578;2023-01-26T13:04:44;100106.28;;;7.59;100.00
21234;BME280;10774;42.178;26.578;2023-01-26T13:07:37;100102.84;;;7.57;100.00
21234;BME280;10774;42.178;26.578;2023-01-26T13:12:56;100093.09;;;7.56;100.00
21234;BME280;10774;42.178;26.578;2023-01-26T13:15:25;100093.56;;;7.64;100.00
21234;BME280;10774;42.178;26.578;2023-01-26T13:17:56;100088.13;;;7.48;100.00
21234;BME280;10774;42.178;26.578;2023-01-26T13:20:29;100089.25;;;7.62;100.00
21234;BME280;10774;42.178;26.578;2023-01-26T13:26:23;100116.63;;;7.67;100.00
21234;BME280;10774;42.178;26.578;2023-01-26T13:28:49;100115.59;;;7.69;100.00
21234;BME280;10774;42.178;26.578;2023-01-26T13:31:30;100109.13;;;7.56;100.00
21234;BME280;10774;42.178;26.578;2023-01-26T13:33:59;100107.63;;;7.50;100.00
21234;BME280;10774;42.178;26.578;2023-01-26T13:36:29;100084.97;;;7.40;100.00
21234;BME280;10774;42.178;26.578;2023-01-26T13:39:02;100081.69;;;7.52;100.00
21234;BME280;10774;42.178;26.578;2023-01-26T13:41:29;100061.94;;;7.38;100.00
21234;BME280;10774;42.178;26.578;2023-01-26T13:44:04;100067.53;;;7.33;100.00
21234;BME280;10774;42.178;26.578;2023-01-26T13:47:26;100056.31;;;7.44;100.00
21234;BME280;10774;42.178;26.578;2023-01-26T13:49:50;100048.59;;;7.38;100.00
21234;BME280;10774;42.178;26.578;2023-01-26T13:52:24;100042.38;;;7.37;100.00
21234;BME280;10774;42.178;26.578;2023-01-26T13:54:52;100031.25;;;7.29;100.00
21234;BME280;10774;42.178;26.578;2023-01-26T13:57:24;100010.94;;;7.07;100.00
21234;BME280;10774;42.178;26.578;2023-01-26T13:59:55;100006.13;;;6.97;100.00
21234;BME280;10774;42.178;26.578;2023-01-26T14:02:24;100002.69;;;7.12;100.00